sensor_id;sensor_type;location;lat;lon;timestamp;temperature;humidity
75170;SHT31;63749;49.186;9.222;2023-07-13T00:00:11;19.74;66.48
75170;SHT31;63749;49.186;9.222;2023-07-13T00:02:37;19.62;66.65
75170;SHT31;63749;49.186;9.222;2023-07-13T00:05:02;19.59;66.83
75170;SHT31;63749;49.186;9.222;2023-07-13T00:07:28;19.56;67.03
75170;SHT31;63749;49.186;9.222;2023-07-13T00:09:53;19.46;67.29
75170;SHT31;63749;49.186;9.222;2023-07-13T00:12:24;19.40;67.29
75170;SHT31;63749;49.186;9.222;2023-07-13T00:14:50;19.33;67.59
75170;SHT31;63749;49.186;9.222;2023-07-13T00:17:16;19.36;67.30
75170;SHT31;63749;49.186;9.222;2023-07-13T00:19:41;19.36;67.61
75170;SHT31;63749;49.186;9.222;2023-07-13T00:22:06;19.33;67.55
75170;SHT31;63749;49.186;9.222;2023-07-13T00:24:32;19.22;67.73
75170;SHT31;63749;49.186;9.222;2023-07-13T00:26:57;19.09;68.28
75170;SHT31;63749;49.186;9.222;2023-07-13T00:29:22;19.08;68.26
75170;SHT31;63749;49.186;9.222;2023-07-13T00:31:48;19.14;68.02
75170;SHT31;63749;49.186;9.222;2023-07-13T00:34:13;19.14;67.89
75170;SHT31;63749;49.186;9.222;2023-07-13T00:36:38;19.02;68.40
75170;SHT31;63749;49.186;9.222;2023-07-13T00:39:04;18.92;68.53
75170;SHT31;63749;49.186;9.222;2023-07-13T00:41:30;18.94;68.18
75170;SHT31;63749;49.186;9.222;2023-07-13T00:43:55;18.88;68.18
75170;SHT31;63749;49.186;9.222;2023-07-13T00:46:29;18.88;67.89
75170;SHT31;63749;49.186;9.222;2023-07-13T00:49:00;18.81;67.59
75170;SHT31;63749;49.186;9.222;2023-07-13T00:51:31;18.72;67.83
75170;SHT31;63749;49.186;9.222;2023-07-13T00:53:59;18.71;67.58
75170;SHT31;63749;49.186;9.222;2023-07-13T00:56:26;18.65;67.66
75170;SHT31;63749;49.186;9.222;2023-07-13T00:58:52;18.53;68.19
75170;SHT31;63749;49.186;9.222;2023-07-13T01:01:18;18.56;68.14
75170;SHT31;63749;49.186;9.222;2023-07-13T01:03:43;18.50;68.50
75170;SHT31;63749;49.186;9.222;2023-07-13T01:06:09;18.46;68.76
75170;SHT31;63749;49.186;9.222;2023-07-13T01:08:34;18.47;68.78
75170;SHT31;63749;49.186;9.222;2023-07-13T01:10:59;18.41;68.72
75170;SHT31;63749;49.186;9.222;2023-07-13T01:13:25;18.34;68.89
75170;SHT31;63749;49.186;9.222;2023-07-13T01:15:51;18.37;68.86
75170;SHT31;63749;49.186;9.222;2023-07-13T01:18:27;18.37;68.99
75170;SHT31;63749;49.186;9.222;2023-07-13T01:21:01;18.29;69.38
75170;SHT31;63749;49.186;9.222;2023-07-13T01:23:27;18.20;69.66
75170;SHT31;63749;49.186;9.222;2023-07-13T01:25:54;18.17;69.92
75170;SHT31;63749;49.186;9.222;2023-07-13T01:28:21;18.16;69.73
75170;SHT31;63749;49.186;9.222;2023-07-13T01:30:47;18.12;69.92
75170;SHT31;63749;49.186;9.222;2023-07-13T01:33:14;18.09;70.05
75170;SHT31;63749;49.186;9.222;2023-07-13T01:35:40;18.02;69.92
75170;SHT31;63749;49.186;9.222;2023-07-13T01:38:06;18.09;69.83
75170;SHT31;63749;49.186;9.222;2023-07-13T01:40:34;18.03;69.92
75170;SHT31;63749;49.186;9.222;2023-07-13T01:43:00;17.95;70.21
75170;SHT31;63749;49.186;9.222;2023-07-13T01:45:26;17.92;70.07
75170;SHT31;63749;49.186;9.222;2023-07-13T01:47:51;17.92;70.30
75170;SHT31;63749;49.186;9.222;2023-07-13T01:50:17;17.77;70.60
75170;SHT31;63749;49.186;9.222;2023-07-13T01:52:43;17.69;71.03
75170;SHT31;63749;49.186;9.222;2023-07-13T01:55:08;17.62;71.16
75170;SHT31;63749;49.186;9.222;2023-07-13T01:57:34;17.51;71.72
75170;SHT31;63749;49.186;9.222;2023-07-13T02:00:03;17.54;71.72
75170;SHT31;63749;49.186;9.222;2023-07-13T02:02:30;17.54;71.54
75170;SHT31;63749;49.186;9.222;2023-07-13T02:04:55;17.44;71.57
75170;SHT31;63749;49.186;9.222;2023-07-13T02:07:21;17.38;71.69
75170;SHT31;63749;49.186;9.222;2023-07-13T02:09:47;17.42;71.77
75170;SHT31;63749;49.186;9.222;2023-07-13T02:12:12;17.38;71.96
75170;SHT31;63749;49.186;9.222;2023-07-13T02:14:37;17.34;71.98
75170;SHT31;63749;49.186;9.222;2023-07-13T02:17:03;17.38;71.65
75170;SHT31;63749;49.186;9.222;2023-07-13T02:19:29;17.41;71.73
75170;SHT31;63749;49.186;9.222;2023-07-13T02:21:54;17.38;71.62
75170;SHT31;63749;49.186;9.222;2023-07-13T02:24:19;17.31;72.01
75170;SHT31;63749;49.186;9.222;2023-07-13T02:26:46;17.26;72.28
75170;SHT31;63749;49.186;9.222;2023-07-13T02:29:12;17.26;72.46
75170;SHT31;63749;49.186;9.222;2023-07-13T02:31:38;17.24;72.48
75170;SHT31;63749;49.186;9.222;2023-07-13T02:34:04;17.16;72.84
75170;SHT31;63749;49.186;9.222;2023-07-13T02:36:30;17.03;73.08
75170;SHT31;63749;49.186;9.222;2023-07-13T02:38:56;16.97;73.32
75170;SHT31;63749;49.186;9.222;2023-07-13T02:41:21;16.89;73.82
75170;SHT31;63749;49.186;9.222;2023-07-13T02:43:48;16.94;73.55
75170;SHT31;63749;49.186;9.222;2023-07-13T02:46:14;16.84;73.81
75170;SHT31;63749;49.186;9.222;2023-07-13T02:48:39;16.77;74.10
75170;SHT31;63749;49.186;9.222;2023-07-13T02:51:06;16.68;74.34
75170;SHT31;63749;49.186;9.222;2023-07-13T02:53:31;16.62;75.01
75170;SHT31;63749;49.186;9.222;2023-07-13T02:55:57;16.56;75.01
75170;SHT31;63749;49.186;9.222;2023-07-13T02:58:22;16.56;75.34
75170;SHT31;63749;49.186;9.222;2023-07-13T03:00:48;16.63;74.85
75170;SHT31;63749;49.186;9.222;2023-07-13T03:03:15;16.56;75.25
75170;SHT31;63749;49.186;9.222;2023-07-13T03:05:42;16.61;74.74
75170;SHT31;63749;49.186;9.222;2023-07-13T03:08:10;16.63;74.55
75170;SHT31;63749;49.186;9.222;2023-07-13T03:10:35;16.69;73.78
75170;SHT31;63749;49.186;9.222;2023-07-13T03:13:01;16.62;74.35
75170;SHT31;63749;49.186;9.222;2023-07-13T03:15:27;16.72;74.54
75170;SHT31;63749;49.186;9.222;2023-07-13T03:17:52;16.80;73.84
75170;SHT31;63749;49.186;9.222;2023-07-13T03:20:18;16.75;73.76
75170;SHT31;63749;49.186;9.222;2023-07-13T03:22:43;16.71;74.15
75170;SHT31;63749;49.186;9.222;2023-07-13T03:25:09;16.71;74.27
75170;SHT31;63749;49.186;9.222;2023-07-13T03:27:34;16.63;74.27
75170;SHT31;63749;49.186;9.222;2023-07-13T03:29:59;16.49;74.80
75170;SHT31;63749;49.186;9.222;2023-07-13T03:32:25;16.40;75.53
75170;SHT31;63749;49.186;9.222;2023-07-13T03:34:50;16.45;75.24
75170;SHT31;63749;49.186;9.222;2023-07-13T03:37:16;16.40;75.67
75170;SHT31;63749;49.186;9.222;2023-07-13T03:39:41;16.29;75.65
75170;SHT31;63749;49.186;9.222;2023-07-13T03:42:07;16.18;76.09
75170;SHT31;63749;49.186;9.222;2023-07-13T03:44:33;16.17;76.48
75170;SHT31;63749;49.186;9.222;2023-07-13T03:46:58;16.11;76.38
75170;SHT31;63749;49.186;9.222;2023-07-13T03:49:23;16.03;76.41
75170;SHT31;63749;49.186;9.222;2023-07-13T03:51:49;15.93;77.06
75170;SHT31;63749;49.186;9.222;2023-07-13T03:54:14;15.96;77.93
75170;SHT31;63749;49.186;9.222;2023-07-13T03:56:39;15.87;78.03
75170;SHT31;63749;49.186;9.222;2023-07-13T03:59:05;15.90;77.58
75170;SHT31;63749;49.186;9.222;2023-07-13T04:01:31;15.89;76.81
75170;SHT31;63749;49.186;9.222;2023-07-13T04:03:56;15.96;76.83
75170;SHT31;63749;49.186;9.222;2023-07-13T04:06:27;15.97;77.15
75170;SHT31;63749;49.186;9.222;2023-07-13T04:08:57;16.04;76.95
75170;SHT31;63749;49.186;9.222;2023-07-13T04:11:24;16.13;76.23
75170;SHT31;63749;49.186;9.222;2023-07-13T04:13:50;16.25;75.76
75170;SHT31;63749;49.186;9.222;2023-07-13T04:16:17;16.31;76.53
75170;SHT31;63749;49.186;9.222;2023-07-13T04:18:44;16.29;76.05
75170;SHT31;63749;49.186;9.222;2023-07-13T04:21:10;16.31;75.78
75170;SHT31;63749;49.186;9.222;2023-07-13T04:23:36;16.34;75.34
75170;SHT31;63749;49.186;9.222;2023-07-13T04:26:02;16.36;75.45
75170;SHT31;63749;49.186;9.222;2023-07-13T04:28:27;16.47;75.05
75170;SHT31;63749;49.186;9.222;2023-07-13T04:30:53;16.49;74.77
75170;SHT31;63749;49.186;9.222;2023-07-13T04:33:18;16.63;73.82
75170;SHT31;63749;49.186;9.222;2023-07-13T04:35:50;16.69;73.28
75170;SHT31;63749;49.186;9.222;2023-07-13T04:38:20;16.77;72.82
75170;SHT31;63749;49.186;9.222;2023-07-13T04:40:45;16.83;72.56
75170;SHT31;63749;49.186;9.222;2023-07-13T04:43:11;16.93;72.68
75170;SHT31;63749;49.186;9.222;2023-07-13T04:45:36;16.96;72.63
75170;SHT31;63749;49.186;9.222;2023-07-13T04:48:02;16.93;72.17
75170;SHT31;63749;49.186;9.222;2023-07-13T04:50:27;16.99;71.67
75170;SHT31;63749;49.186;9.222;2023-07-13T04:52:52;17.04;72.17
75170;SHT31;63749;49.186;9.222;2023-07-13T04:55:19;17.14;71.48
75170;SHT31;63749;49.186;9.222;2023-07-13T04:57:46;17.20;71.99
75170;SHT31;63749;49.186;9.222;2023-07-13T05:00:12;17.16;71.39
75170;SHT31;63749;49.186;9.222;2023-07-13T05:02:39;17.11;71.85
75170;SHT31;63749;49.186;9.222;2023-07-13T05:05:05;17.14;71.76
75170;SHT31;63749;49.186;9.222;2023-07-13T05:07:31;17.23;72.56
75170;SHT31;63749;49.186;9.222;2023-07-13T05:09:59;17.27;72.93
75170;SHT31;63749;49.186;9.222;2023-07-13T05:12:25;17.28;73.43
75170;SHT31;63749;49.186;9.222;2023-07-13T05:14:50;17.37;72.51
75170;SHT31;63749;49.186;9.222;2023-07-13T05:17:15;17.35;72.91
75170;SHT31;63749;49.186;9.222;2023-07-13T05:19:41;17.41;73.78
75170;SHT31;63749;49.186;9.222;2023-07-13T05:22:06;17.42;73.64
75170;SHT31;63749;49.186;9.222;2023-07-13T05:24:32;17.47;73.59
75170;SHT31;63749;49.186;9.222;2023-07-13T05:26:57;17.55;72.78
75170;SHT31;63749;49.186;9.222;2023-07-13T05:29:22;17.71;72.74
75170;SHT31;63749;49.186;9.222;2023-07-13T05:31:48;17.85;72.54
75170;SHT31;63749;49.186;9.222;2023-07-13T05:34:14;18.00;72.28
75170;SHT31;63749;49.186;9.222;2023-07-13T05:36:40;18.12;70.88
75170;SHT31;63749;49.186;9.222;2023-07-13T05:39:06;18.23;69.81
75170;SHT31;63749;49.186;9.222;2023-07-13T05:41:31;18.29;70.07
75170;SHT31;63749;49.186;9.222;2023-07-13T05:43:57;18.28;70.61
75170;SHT31;63749;49.186;9.222;2023-07-13T05:46:22;18.37;70.41
75170;SHT31;63749;49.186;9.222;2023-07-13T05:48:47;18.41;70.31
75170;SHT31;63749;49.186;9.222;2023-07-13T05:51:13;18.56;69.89
75170;SHT31;63749;49.186;9.222;2023-07-13T05:53:38;18.72;69.38
75170;SHT31;63749;49.186;9.222;2023-07-13T05:56:04;18.98;68.48
75170;SHT31;63749;49.186;9.222;2023-07-13T05:58:30;18.89;68.75
75170;SHT31;63749;49.186;9.222;2023-07-13T06:01:04;18.94;68.08
75170;SHT31;63749;49.186;9.222;2023-07-13T06:03:30;19.12;67.63
75170;SHT31;63749;49.186;9.222;2023-07-13T06:05:56;19.19;68.18
75170;SHT31;63749;49.186;9.222;2023-07-13T06:08:21;19.12;67.35
75170;SHT31;63749;49.186;9.222;2023-07-13T06:10:46;19.16;65.11
75170;SHT31;63749;49.186;9.222;2023-07-13T06:13:12;19.12;64.17
75170;SHT31;63749;49.186;9.222;2023-07-13T06:15:37;19.09;62.71
75170;SHT31;63749;49.186;9.222;2023-07-13T06:18:02;19.07;63.27
75170;SHT31;63749;49.186;9.222;2023-07-13T06:20:28;19.05;64.23
75170;SHT31;63749;49.186;9.222;2023-07-13T06:22:54;19.05;64.65
75170;SHT31;63749;49.186;9.222;2023-07-13T06:25:19;18.98;64.16
75170;SHT31;63749;49.186;9.222;2023-07-13T06:27:44;18.98;63.98
75170;SHT31;63749;49.186;9.222;2023-07-13T06:30:10;18.92;63.88
75170;SHT31;63749;49.186;9.222;2023-07-13T06:32:36;18.91;63.70
75170;SHT31;63749;49.186;9.222;2023-07-13T06:35:01;18.97;64.52
75170;SHT31;63749;49.186;9.222;2023-07-13T06:37:27;18.92;64.27
75170;SHT31;63749;49.186;9.222;2023-07-13T06:39:52;18.92;64.53
75170;SHT31;63749;49.186;9.222;2023-07-13T06:42:17;18.98;63.29
75170;SHT31;63749;49.186;9.222;2023-07-13T06:44:43;19.09;63.51
75170;SHT31;63749;49.186;9.222;2023-07-13T06:47:08;19.22;63.72
75170;SHT31;63749;49.186;9.222;2023-07-13T06:49:33;19.29;64.71
75170;SHT31;63749;49.186;9.222;2023-07-13T06:51:59;19.59;63.79
75170;SHT31;63749;49.186;9.222;2023-07-13T06:54:24;19.62;63.59
75170;SHT31;63749;49.186;9.222;2023-07-13T06:56:50;19.45;64.68
75170;SHT31;63749;49.186;9.222;2023-07-13T06:59:15;19.29;64.93
75170;SHT31;63749;49.186;9.222;2023-07-13T07:01:40;19.30;63.96
75170;SHT31;63749;49.186;9.222;2023-07-13T07:04:06;19.45;63.51
75170;SHT31;63749;49.186;9.222;2023-07-13T07:06:31;19.65;62.29
75170;SHT31;63749;49.186;9.222;2023-07-13T07:08:57;19.76;61.98
75170;SHT31;63749;49.186;9.222;2023-07-13T07:11:24;19.86;61.90
75170;SHT31;63749;49.186;9.222;2023-07-13T07:13:51;19.71;61.74
75170;SHT31;63749;49.186;9.222;2023-07-13T07:16:17;19.98;60.36
75170;SHT31;63749;49.186;9.222;2023-07-13T07:18:43;19.91;60.39
75170;SHT31;63749;49.186;9.222;2023-07-13T07:21:08;20.03;59.88
75170;SHT31;63749;49.186;9.222;2023-07-13T07:23:34;20.15;58.85
75170;SHT31;63749;49.186;9.222;2023-07-13T07:25:59;20.29;58.96
75170;SHT31;63749;49.186;9.222;2023-07-13T07:28:25;20.56;58.59
75170;SHT31;63749;49.186;9.222;2023-07-13T07:30:54;20.76;57.61
75170;SHT31;63749;49.186;9.222;2023-07-13T07:33:20;20.77;57.06
75170;SHT31;63749;49.186;9.222;2023-07-13T07:35:45;20.79;56.17
75170;SHT31;63749;49.186;9.222;2023-07-13T07:38:11;20.73;57.02
75170;SHT31;63749;49.186;9.222;2023-07-13T07:40:37;21.00;55.76
75170;SHT31;63749;49.186;9.222;2023-07-13T07:43:02;21.22;54.75
75170;SHT31;63749;49.186;9.222;2023-07-13T07:45:28;21.38;53.52
75170;SHT31;63749;49.186;9.222;2023-07-13T07:47:53;21.55;53.39
75170;SHT31;63749;49.186;9.222;2023-07-13T07:50:20;21.65;53.66
75170;SHT31;63749;49.186;9.222;2023-07-13T07:52:45;21.64;53.14
75170;SHT31;63749;49.186;9.222;2023-07-13T07:55:11;21.65;53.66
75170;SHT31;63749;49.186;9.222;2023-07-13T07:57:36;21.77;52.64
75170;SHT31;63749;49.186;9.222;2023-07-13T08:00:01;21.98;52.35
75170;SHT31;63749;49.186;9.222;2023-07-13T08:02:27;21.96;52.59
75170;SHT31;63749;49.186;9.222;2023-07-13T08:04:52;22.06;51.04
75170;SHT31;63749;49.186;9.222;2023-07-13T08:07:18;22.33;50.85
75170;SHT31;63749;49.186;9.222;2023-07-13T08:09:44;22.52;50.45
75170;SHT31;63749;49.186;9.222;2023-07-13T08:12:09;22.57;50.28
75170;SHT31;63749;49.186;9.222;2023-07-13T08:14:34;22.61;49.36
75170;SHT31;63749;49.186;9.222;2023-07-13T08:17:00;22.70;48.89
75170;SHT31;63749;49.186;9.222;2023-07-13T08:19:25;22.73;49.07
75170;SHT31;63749;49.186;9.222;2023-07-13T08:21:51;22.80;49.33
75170;SHT31;63749;49.186;9.222;2023-07-13T08:24:16;22.97;48.82
75170;SHT31;63749;49.186;9.222;2023-07-13T08:26:44;23.07;46.83
75170;SHT31;63749;49.186;9.222;2023-07-13T08:29:10;23.08;47.39
75170;SHT31;63749;49.186;9.222;2023-07-13T08:31:35;23.02;46.77
75170;SHT31;63749;49.186;9.222;2023-07-13T08:34:00;23.22;47.34
75170;SHT31;63749;49.186;9.222;2023-07-13T08:36:26;23.31;46.41
75170;SHT31;63749;49.186;9.222;2023-07-13T08:38:52;23.42;46.34
75170;SHT31;63749;49.186;9.222;2023-07-13T08:41:18;23.50;46.04
75170;SHT31;63749;49.186;9.222;2023-07-13T08:43:57;23.56;46.04
75170;SHT31;63749;49.186;9.222;2023-07-13T08:46:38;23.70;45.18
75170;SHT31;63749;49.186;9.222;2023-07-13T08:49:09;23.92;45.30
75170;SHT31;63749;49.186;9.222;2023-07-13T08:51:42;23.92;43.86
75170;SHT31;63749;49.186;9.222;2023-07-13T08:54:22;23.94;43.82
75170;SHT31;63749;49.186;9.222;2023-07-13T08:56:50;23.86;44.67
75170;SHT31;63749;49.186;9.222;2023-07-13T08:59:20;23.97;44.26
75170;SHT31;63749;49.186;9.222;2023-07-13T09:04:53;24.38;43.83
75170;SHT31;63749;49.186;9.222;2023-07-13T09:08:01;24.71;44.00
75170;SHT31;63749;49.186;9.222;2023-07-13T09:10:31;24.72;42.40
75170;SHT31;63749;49.186;9.222;2023-07-13T09:15:49;24.75;41.42
75170;SHT31;63749;49.186;9.222;2023-07-13T09:18:28;24.64;40.38
75170;SHT31;63749;49.186;9.222;2023-07-13T09:26:56;24.71;41.30
75170;SHT31;63749;49.186;9.222;2023-07-13T09:29:29;24.69;41.12
75170;SHT31;63749;49.186;9.222;2023-07-13T09:31:57;24.86;41.29
75170;SHT31;63749;49.186;9.222;2023-07-13T09:34:25;24.93;40.67
75170;SHT31;63749;49.186;9.222;2023-07-13T09:36:50;24.86;40.42
75170;SHT31;63749;49.186;9.222;2023-07-13T09:39:34;24.96;40.14
75170;SHT31;63749;49.186;9.222;2023-07-13T09:42:07;25.10;40.64
75170;SHT31;63749;49.186;9.222;2023-07-13T09:44:50;25.38;40.19
75170;SHT31;63749;49.186;9.222;2023-07-13T09:47:21;25.48;39.98
75170;SHT31;63749;49.186;9.222;2023-07-13T09:50:03;25.40;39.50
75170;SHT31;63749;49.186;9.222;2023-07-13T09:52:40;25.47;40.26
75170;SHT31;63749;49.186;9.222;2023-07-13T09:55:30;25.50;39.74
75170;SHT31;63749;49.186;9.222;2023-07-13T09:57:56;25.44;39.04
75170;SHT31;63749;49.186;9.222;2023-07-13T10:00:30;25.33;38.33
75170;SHT31;63749;49.186;9.222;2023-07-13T10:03:24;25.40;39.21
75170;SHT31;63749;49.186;9.222;2023-07-13T10:05:51;25.74;38.33
75170;SHT31;63749;49.186;9.222;2023-07-13T10:08:18;25.82;39.83
75170;SHT31;63749;49.186;9.222;2023-07-13T10:10:45;26.12;39.70
75170;SHT31;63749;49.186;9.222;2023-07-13T10:15:54;26.49;38.07
75170;SHT31;63749;49.186;9.222;2023-07-13T10:18:20;26.39;37.02
75170;SHT31;63749;49.186;9.222;2023-07-13T10:20:46;26.40;37.38
75170;SHT31;63749;49.186;9.222;2023-07-13T10:23:15;26.52;37.78
75170;SHT31;63749;49.186;9.222;2023-07-13T10:25:44;26.70;36.87
75170;SHT31;63749;49.186;9.222;2023-07-13T10:28:32;26.69;36.40
75170;SHT31;63749;49.186;9.222;2023-07-13T10:31:01;26.77;37.20
75170;SHT31;63749;49.186;9.222;2023-07-13T10:33:27;26.40;37.74
75170;SHT31;63749;49.186;9.222;2023-07-13T10:36:05;26.24;37.11
75170;SHT31;63749;49.186;9.222;2023-07-13T10:38:34;26.04;37.61
75170;SHT31;63749;49.186;9.222;2023-07-13T10:41:05;26.42;37.22
75170;SHT31;63749;49.186;9.222;2023-07-13T10:43:35;26.25;37.34
75170;SHT31;63749;49.186;9.222;2023-07-13T10:46:04;26.15;37.36
75170;SHT31;63749;49.186;9.222;2023-07-13T10:48:31;26.39;36.75
75170;SHT31;63749;49.186;9.222;2023-07-13T10:51:00;26.35;36.48
75170;SHT31;63749;49.186;9.222;2023-07-13T10:53:31;27.00;35.10
75170;SHT31;63749;49.186;9.222;2023-07-13T10:56:02;26.93;35.48
75170;SHT31;63749;49.186;9.222;2023-07-13T10:58:37;27.11;35.40
75170;SHT31;63749;49.186;9.222;2023-07-13T11:01:14;26.80;36.49
75170;SHT31;63749;49.186;9.222;2023-07-13T11:06:12;26.82;36.35
75170;SHT31;63749;49.186;9.222;2023-07-13T11:13:56;26.97;36.18
75170;SHT31;63749;49.186;9.222;2023-07-13T11:21:27;27.45;35.28
75170;SHT31;63749;49.186;9.222;2023-07-13T11:24:01;26.97;35.62
75170;SHT31;63749;49.186;9.222;2023-07-13T11:26:51;26.83;35.49
75170;SHT31;63749;49.186;9.222;2023-07-13T11:29:38;27.30;35.67
75170;SHT31;63749;49.186;9.222;2023-07-13T11:32:25;27.61;34.75
75170;SHT31;63749;49.186;9.222;2023-07-13T11:34:53;27.73;34.68
75170;SHT31;63749;49.186;9.222;2023-07-13T11:37:19;27.92;33.95
75170;SHT31;63749;49.186;9.222;2023-07-13T11:39:46;28.34;33.78
75170;SHT31;63749;49.186;9.222;2023-07-13T11:42:16;27.82;34.01
75170;SHT31;63749;49.186;9.222;2023-07-13T11:44:44;27.74;33.75
75170;SHT31;63749;49.186;9.222;2023-07-13T11:47:14;27.69;33.76
75170;SHT31;63749;49.186;9.222;2023-07-13T11:49:44;28.30;33.07
75170;SHT31;63749;49.186;9.222;2023-07-13T11:52:18;27.88;33.86
75170;SHT31;63749;49.186;9.222;2023-07-13T11:54:50;27.49;34.56
75170;SHT31;63749;49.186;9.222;2023-07-13T11:57:31;27.46;34.28
75170;SHT31;63749;49.186;9.222;2023-07-13T12:00:02;27.90;34.48
75170;SHT31;63749;49.186;9.222;2023-07-13T12:04:55;27.25;34.64
75170;SHT31;63749;49.186;9.222;2023-07-13T12:07:20;27.66;34.61
75170;SHT31;63749;49.186;9.222;2023-07-13T12:09:46;28.47;33.08
75170;SHT31;63749;49.186;9.222;2023-07-13T12:12:13;29.08;32.98
75170;SHT31;63749;49.186;9.222;2023-07-13T12:14:39;28.81;33.00
75170;SHT31;63749;49.186;9.222;2023-07-13T12:17:11;28.69;32.44
75170;SHT31;63749;49.186;9.222;2023-07-13T12:19:37;27.65;34.85
75170;SHT31;63749;49.186;9.222;2023-07-13T12:22:03;27.41;35.45
75170;SHT31;63749;49.186;9.222;2023-07-13T12:24:29;27.99;35.45
75170;SHT31;63749;49.186;9.222;2023-07-13T12:27:04;28.45;34.33
75170;SHT31;63749;49.186;9.222;2023-07-13T12:29:32;28.89;34.08
75170;SHT31;63749;49.186;9.222;2023-07-13T12:31:58;28.98;33.93
75170;SHT31;63749;49.186;9.222;2023-07-13T12:34:25;28.54;34.96
75170;SHT31;63749;49.186;9.222;2023-07-13T12:36:56;27.78;35.43
75170;SHT31;63749;49.186;9.222;2023-07-13T12:45:01;30.48;32.13
75170;SHT31;63749;49.186;9.222;2023-07-13T12:47:27;31.23;29.10
75170;SHT31;63749;49.186;9.222;2023-07-13T12:49:56;31.66;28.53
75170;SHT31;63749;49.186;9.222;2023-07-13T12:52:33;32.26;28.35
75170;SHT31;63749;49.186;9.222;2023-07-13T12:55:04;32.64;28.27
75170;SHT31;63749;49.186;9.222;2023-07-13T12:57:30;33.36;27.66
75170;SHT31;63749;49.186;9.222;2023-07-13T12:59:55;33.94;26.47
75170;SHT31;63749;49.186;9.222;2023-07-13T13:02:32;34.51;26.76
75170;SHT31;63749;49.186;9.222;2023-07-13T13:04:59;34.96;26.18
75170;SHT31;63749;49.186;9.222;2023-07-13T13:07:25;34.96;25.12
75170;SHT31;63749;49.186;9.222;2023-07-13T13:09:51;33.11;27.31
75170;SHT31;63749;49.186;9.222;2023-07-13T13:12:19;31.48;29.83
75170;SHT31;63749;49.186;9.222;2023-07-13T13:14:44;31.64;29.88
75170;SHT31;63749;49.186;9.222;2023-07-13T13:17:22;32.34;29.00
75170;SHT31;63749;49.186;9.222;2023-07-13T13:19:52;31.89;29.89
75170;SHT31;63749;49.186;9.222;2023-07-13T13:22:19;31.59;29.42
75170;SHT31;63749;49.186;9.222;2023-07-13T13:24:44;32.94;27.60
75170;SHT31;63749;49.186;9.222;2023-07-13T13:27:22;31.81;29.84
75170;SHT31;63749;49.186;9.222;2023-07-13T13:29:50;33.79;27.15
75170;SHT31;63749;49.186;9.222;2023-07-13T13:32:17;34.23;26.95
75170;SHT31;63749;49.186;9.222;2023-07-13T13:34:44;34.89;26.20
75170;SHT31;63749;49.186;9.222;2023-07-13T13:37:22;33.70;27.19
75170;SHT31;63749;49.186;9.222;2023-07-13T13:39:49;31.51;29.57
75170;SHT31;63749;49.186;9.222;2023-07-13T13:42:14;30.00;31.93
75170;SHT31;63749;49.186;9.222;2023-07-13T13:44:40;30.48;31.16
75170;SHT31;63749;49.186;9.222;2023-07-13T13:47:41;33.08;28.31
75170;SHT31;63749;49.186;9.222;2023-07-13T13:50:19;33.30;27.37
75170;SHT31;63749;49.186;9.222;2023-07-13T13:52:45;30.97;29.89
75170;SHT31;63749;49.186;9.222;2023-07-13T13:55:15;30.08;31.33
75170;SHT31;63749;49.186;9.222;2023-07-13T13:57:40;29.40;32.85
75170;SHT31;63749;49.186;9.222;2023-07-13T14:00:07;28.91;32.84
75170;SHT31;63749;49.186;9.222;2023-07-13T14:02:34;28.64;33.47
75170;SHT31;63749;49.186;9.222;2023-07-13T14:05:01;31.24;30.78
75170;SHT31;63749;49.186;9.222;2023-07-13T14:07:27;31.76;29.94
75170;SHT31;63749;49.186;9.222;2023-07-13T14:09:57;33.38;27.50
75170;SHT31;63749;49.186;9.222;2023-07-13T14:12:22;31.48;30.18
75170;SHT31;63749;49.186;9.222;2023-07-13T14:14:49;32.14;28.33
75170;SHT31;63749;49.186;9.222;2023-07-13T14:17:20;33.77;27.11
75170;SHT31;63749;49.186;9.222;2023-07-13T14:19:49;33.66;26.70
75170;SHT31;63749;49.186;9.222;2023-07-13T14:22:19;34.01;26.46
75170;SHT31;63749;49.186;9.222;2023-07-13T14:24:46;35.23;24.93
75170;SHT31;63749;49.186;9.222;2023-07-13T14:27:12;34.62;25.58
75170;SHT31;63749;49.186;9.222;2023-07-13T14:29:38;35.34;25.13
75170;SHT31;63749;49.186;9.222;2023-07-13T14:32:04;36.14;24.68
75170;SHT31;63749;49.186;9.222;2023-07-13T14:34:30;34.43;25.85
75170;SHT31;63749;49.186;9.222;2023-07-13T14:36:55;32.81;27.45
75170;SHT31;63749;49.186;9.222;2023-07-13T14:39:24;33.30;27.45
75170;SHT31;63749;49.186;9.222;2023-07-13T14:41:52;33.63;26.29
75170;SHT31;63749;49.186;9.222;2023-07-13T14:44:21;34.76;24.88
75170;SHT31;63749;49.186;9.222;2023-07-13T14:46:49;35.78;24.32
75170;SHT31;63749;49.186;9.222;2023-07-13T14:49:35;35.49;24.52
75170;SHT31;63749;49.186;9.222;2023-07-13T14:52:05;35.20;24.49
75170;SHT31;63749;49.186;9.222;2023-07-13T14:54:35;34.59;25.25
75170;SHT31;63749;49.186;9.222;2023-07-13T14:57:09;35.17;24.42
75170;SHT31;63749;49.186;9.222;2023-07-13T14:59:34;35.61;24.47
75170;SHT31;63749;49.186;9.222;2023-07-13T15:01:59;37.11;22.99
75170;SHT31;63749;49.186;9.222;2023-07-13T15:04:25;37.47;21.82
75170;SHT31;63749;49.186;9.222;2023-07-13T15:06:58;37.61;22.54
75170;SHT31;63749;49.186;9.222;2023-07-13T15:09:25;36.75;22.35
75170;SHT31;63749;49.186;9.222;2023-07-13T15:11:57;36.29;22.43
75170;SHT31;63749;49.186;9.222;2023-07-13T15:14:23;36.41;23.05
75170;SHT31;63749;49.186;9.222;2023-07-13T15:16:52;34.31;24.64
75170;SHT31;63749;49.186;9.222;2023-07-13T15:19:19;34.79;24.06
75170;SHT31;63749;49.186;9.222;2023-07-13T15:21:44;34.95;23.54
75170;SHT31;63749;49.186;9.222;2023-07-13T15:24:10;35.06;24.10
75170;SHT31;63749;49.186;9.222;2023-07-13T15:26:36;35.43;23.57
75170;SHT31;63749;49.186;9.222;2023-07-13T15:29:03;35.53;22.93
75170;SHT31;63749;49.186;9.222;2023-07-13T15:31:28;35.40;23.39
75170;SHT31;63749;49.186;9.222;2023-07-13T15:33:56;35.58;22.45
75170;SHT31;63749;49.186;9.222;2023-07-13T15:36:23;35.85;22.79
75170;SHT31;63749;49.186;9.222;2023-07-13T15:38:51;35.46;23.11
75170;SHT31;63749;49.186;9.222;2023-07-13T15:41:18;35.13;23.33
75170;SHT31;63749;49.186;9.222;2023-07-13T15:43:45;35.39;23.48
75170;SHT31;63749;49.186;9.222;2023-07-13T15:46:10;34.89;23.97
75170;SHT31;63749;49.186;9.222;2023-07-13T15:48:36;34.41;24.23
75170;SHT31;63749;49.186;9.222;2023-07-13T15:51:03;34.23;24.63
75170;SHT31;63749;49.186;9.222;2023-07-13T15:53:32;34.14;24.66
75170;SHT31;63749;49.186;9.222;2023-07-13T15:55:58;33.94;24.70
75170;SHT31;63749;49.186;9.222;2023-07-13T15:58:24;32.71;26.36
75170;SHT31;63749;49.186;9.222;2023-07-13T16:00:50;34.37;24.70
75170;SHT31;63749;49.186;9.222;2023-07-13T16:03:17;32.60;26.36
75170;SHT31;63749;49.186;9.222;2023-07-13T16:05:42;34.40;24.70
75170;SHT31;63749;49.186;9.222;2023-07-13T16:08:22;35.05;24.18